Time;durP1;ratioP1;P1;durP2;ratioP2;P2;SDS_P1;SDS_P2;PMS_P1;PMS_P2;Temp;Humidity;BMP_temperature;BMP_pressure;BME280_temperature;BME280_humidity;BME280_pressure;Samples;Min_cycle;Max_cycle;Signal;HPM_P1;HPM_P2
2022/10/28 00:00:51;;;;;;;109.70;40.88;;;11.70;99.90;;;;;;5022348;28;20036;-83
2022/10/28 00:03:17;;;;;;;105.07;39.20;;;11.70;99.90;;;;;;5005647;28;20037;-83
2022/10/28 00:05:43;;;;;;;110.05;41.42;;;11.70;99.90;;;;;;5021961;28;20018;-84
2022/10/28 00:08:10;;;;;;;99.82;40.58;;;11.70;99.90;;;;;;5038667;28;20033;-83
2022/10/28 00:10:35;;;;;;;101.85;40.15;;;11.70;99.90;;;;;;5021195;28;20022;-84
2022/10/28 00:13:01;;;;;;;97.28;38.22;;;11.70;99.90;;;;;;5021259;28;20038;-86
2022/10/28 00:15:27;;;;;;;106.13;40.25;;;11.70;99.90;;;;;;5038229;28;20078;-84
2022/10/28 00:17:53;;;;;;;108.60;41.75;;;11.80;99.90;;;;;;5038031;28;20077;-84
2022/10/28 00:20:19;;;;;;;110.50;42.90;;;11.80;99.90;;;;;;5037440;28;20029;-87
2022/10/28 00:22:45;;;;;;;112.45;42.60;;;11.70;99.90;;;;;;5037559;28;20042;-86
2022/10/28 00:25:10;;;;;;;105.00;42.50;;;11.70;99.90;;;;;;5021240;28;20014;-84
2022/10/28 00:27:36;;;;;;;109.93;41.42;;;11.80;99.90;;;;;;5037630;28;20014;-84
2022/10/28 00:30:03;;;;;;;116.53;41.88;;;11.70;99.90;;;;;;5038121;28;20048;-85
2022/10/28 00:32:29;;;;;;;103.55;42.22;;;11.80;99.90;;;;;;5037486;28;20220;-85
2022/10/28 00:34:55;;;;;;;105.55;41.75;;;11.70;99.90;;;;;;5035761;28;20030;-86
2022/10/28 00:37:21;;;;;;;103.25;40.38;;;11.70;99.90;;;;;;5036666;28;20037;-86
2022/10/28 00:39:47;;;;;;;110.13;39.08;;;11.70;99.90;;;;;;5033971;28;20026;-87
2022/10/28 00:42:17;;;;;;;108.75;40.92;;;11.70;99.90;;;;;;5035195;28;20036;-87
2022/10/28 00:44:55;;;;;;;102.88;40.72;;;11.70;99.90;;;;;;5034330;28;20037;-87
2022/10/28 00:47:34;;;;;;;96.93;38.83;;;11.70;99.90;;;;;;5034389;28;20018;-87
2022/10/28 00:50:22;;;;;;;106.65;39.92;;;11.70;99.90;;;;;;5016781;28;20029;-86
2022/10/28 00:52:57;;;;;;;100.05;40.00;;;11.60;99.90;;;;;;5018822;28;20017;-84
2022/10/28 00:55:23;;;;;;;98.88;39.05;;;11.60;99.90;;;;;;5019494;28;20021;-85
2022/10/28 00:57:50;;;;;;;97.18;38.63;;;11.60;99.90;;;;;;5037558;28;20021;-84
2022/10/28 01:00:16;;;;;;;107.45;39.83;;;11.60;99.90;;;;;;5036122;28;20048;-87
2022/10/28 01:02:47;;;;;;;88.95;38.38;;;11.60;99.90;;;;;;5035689;28;20018;-86
2022/10/28 01:05:17;;;;;;;91.68;38.78;;;11.70;99.90;;;;;;5017125;28;20097;-86
2022/10/28 01:07:44;;;;;;;97.95;38.38;;;11.70;99.90;;;;;;5034492;28;20046;-86
2022/10/28 01:10:11;;;;;;;85.03;36.42;;;11.70;99.90;;;;;;5035045;28;20014;-86
2022/10/28 01:13:00;;;;;;;88.13;36.55;;;11.70;99.90;;;;;;5037797;28;20022;-84
2022/10/28 01:15:43;;;;;;;79.93;34.17;;;11.60;99.90;;;;;;5039052;28;20026;-84
2022/10/28 01:18:32;;;;;;;77.35;34.05;;;11.70;99.90;;;;;;5038338;28;20041;-84
2022/10/28 01:21:30;;;;;;;77.05;33.38;;;11.70;99.90;;;;;;5038145;28;20037;-85
2022/10/28 01:24:14;;;;;;;81.43;33.97;;;11.70;99.90;;;;;;5037794;28;20040;-83
2022/10/28 01:26:43;;;;;;;72.60;31.25;;;11.70;99.90;;;;;;5021177;28;20041;-83
2022/10/28 01:29:24;;;;;;;59.10;28.73;;;11.60;99.90;;;;;;5038390;28;20018;-84
2022/10/28 01:31:57;;;;;;;62.13;28.98;;;11.70;99.90;;;;;;5038653;28;20030;-84
2022/10/28 01:34:32;;;;;;;53.75;27.60;;;11.70;99.90;;;;;;5038519;28;20037;-84
2022/10/28 01:37:07;;;;;;;50.85;25.45;;;11.70;99.90;;;;;;5021215;28;20026;-84
2022/10/28 01:39:46;;;;;;;53.25;27.42;;;11.60;99.90;;;;;;5037730;28;20026;-84
2022/10/28 01:42:12;;;;;;;49.50;25.80;;;11.70;99.90;;;;;;5018248;28;20041;-85
2022/10/28 01:45:27;;;;;;;51.67;26.45;;;11.60;99.90;;;;;;5025665;28;20034;-84
2022/10/28 01:47:56;;;;;;;50.60;26.40;;;11.70;99.90;;;;;;5030968;28;20030;-83
2022/10/28 01:50:27;;;;;;;48.30;25.73;;;11.60;99.90;;;;;;5019528;28;20018;-85
2022/10/28 01:52:57;;;;;;;48.28;24.55;;;11.60;99.90;;;;;;5033535;28;20037;-87
2022/10/28 01:55:26;;;;;;;50.97;26.52;;;11.60;99.90;;;;;;5027640;28;20025;-88
2022/10/28 01:57:55;;;;;;;51.28;25.52;;;11.60;99.90;;;;;;5033944;28;20037;-84
2022/10/28 02:00:21;;;;;;;52.55;26.27;;;11.60;99.90;;;;;;5027251;28;20010;-83
2022/10/28 02:02:49;;;;;;;51.67;25.70;;;11.60;99.90;;;;;;5037016;28;20053;-84
2022/10/28 02:05:43;;;;;;;53.38;26.90;;;11.60;99.90;;;;;;5037256;28;20026;-83
2022/10/28 02:08:18;;;;;;;45.22;23.88;;;11.60;99.90;;;;;;5036796;28;20106;-86
2022/10/28 02:10:59;;;;;;;;;;;11.60;99.90;;;;;;5036447;28;20029;-85
2022/10/28 02:13:41;;;;;;;49.30;24.77;;;11.60;99.90;;;;;;5035133;28;19894;-86
2022/10/28 02:16:22;;;;;;;51.50;25.50;;;11.60;99.90;;;;;;5036750;28;20086;-85
2022/10/28 02:18:57;;;;;;;53.35;24.77;;;11.60;99.90;;;;;;5018218;28;20101;-86
2022/10/28 02:21:46;;;;;;;46.92;24.00;;;11.60;99.90;;;;;;5034236;28;20057;-85
2022/10/28 02:24:31;;;;;;;46.92;24.13;;;11.60;99.90;;;;;;5029710;28;20076;-86
2022/10/28 02:27:22;;;;;;;47.95;24.77;;;11.60;99.90;;;;;;5011059;28;20109;-88
2022/10/28 02:29:56;;;;;;;51.72;25.48;;;11.60;99.90;;;;;;5027377;28;20425;-85
2022/10/28 02:32:27;;;;;;;51.03;25.02;;;11.60;99.90;;;;;;5027239;28;20030;-86
2022/10/28 02:34:56;;;;;;;56.25;25.80;;;11.70;99.90;;;;;;5027554;28;20034;-85
2022/10/28 02:37:28;;;;;;;49.22;24.50;;;11.60;99.90;;;;;;5027400;28;20513;-85
2022/10/28 02:39:58;;;;;;;48.20;25.63;;;11.70;99.90;;;;;;5012160;28;20038;-87
2022/10/28 02:42:36;;;;;;;45.28;23.85;;;11.70;99.90;;;;;;5030274;28;20034;-87
2022/10/28 02:45:13;;;;;;;44.30;22.70;;;11.70;99.90;;;;;;5029920;28;20033;-85
2022/10/28 02:47:46;;;;;;;50.28;23.02;;;11.70;99.90;;;;;;5030081;28;20065;-87
2022/10/28 02:50:16;;;;;;;46.20;24.42;;;11.70;99.90;;;;;;5032265;28;20030;-87
2022/10/28 02:52:48;;;;;;;52.00;24.38;;;11.70;99.90;;;;;;5035159;28;20017;-86
2022/10/28 02:55:14;;;;;;;49.88;24.10;;;11.70;99.90;;;;;;5037592;28;20106;-86
2022/10/28 02:57:43;;;;;;;51.53;25.05;;;11.70;99.90;;;;;;5037540;28;20033;-86
2022/10/28 03:00:14;;;;;;;54.85;25.58;;;11.70;99.90;;;;;;5037998;28;20026;-86
2022/10/28 03:02:40;;;;;;;46.20;24.52;;;11.80;99.90;;;;;;5039507;28;20049;-83
2022/10/28 03:05:07;;;;;;;44.88;24.27;;;11.70;99.90;;;;;;5022551;28;20094;-87
2022/10/28 03:07:33;;;;;;;49.50;25.90;;;11.70;99.90;;;;;;5034379;28;20030;-88
2022/10/28 03:09:58;;;;;;;44.45;24.02;;;11.70;99.90;;;;;;5034703;28;20045;-88
2022/10/28 03:12:24;;;;;;;45.25;22.08;;;11.80;99.90;;;;;;5014133;28;20033;-87
2022/10/28 03:14:50;;;;;;;49.40;24.52;;;11.70;99.90;;;;;;5030384;28;20037;-87
2022/10/28 03:17:16;;;;;;;44.70;24.08;;;11.70;99.90;;;;;;5020099;28;20365;-87
2022/10/28 03:19:42;;;;;;;47.42;23.30;;;11.70;99.90;;;;;;5019001;28;20030;-85
2022/10/28 03:22:07;;;;;;;40.45;22.45;;;11.70;99.90;;;;;;5035937;28;20045;-85
2022/10/28 03:24:33;;;;;;;46.50;23.17;;;11.70;99.90;;;;;;5019183;28;20073;-87
2022/10/28 03:26:59;;;;;;;44.90;23.58;;;11.80;99.90;;;;;;5019551;28;20057;-86
2022/10/28 03:29:25;;;;;;;40.13;23.23;;;11.70;99.90;;;;;;5037337;28;20026;-85
2022/10/28 03:31:50;;;;;;;45.65;23.75;;;11.70;99.90;;;;;;5038986;28;20037;-84
2022/10/28 03:34:16;;;;;;;46.13;23.88;;;11.70;99.90;;;;;;5039182;28;20026;-86
2022/10/28 03:36:42;;;;;;;45.65;24.73;;;11.70;99.90;;;;;;5038519;28;20053;-86
2022/10/28 03:39:08;;;;;;;44.72;23.05;;;11.80;99.90;;;;;;5013390;28;20038;-85
2022/10/28 03:41:34;;;;;;;46.35;22.85;;;11.70;99.90;;;;;;5034781;28;20022;-88
2022/10/28 03:44:00;;;;;;;40.90;22.08;;;11.80;99.90;;;;;;5001506;28;20080;-84
2022/10/28 03:46:26;;;;;;;41.70;21.55;;;11.80;99.90;;;;;;5039321;28;20025;-83
2022/10/28 03:48:52;;;;;;;44.08;23.30;;;11.70;99.90;;;;;;5039331;28;20057;-84
2022/10/28 03:51:17;;;;;;;42.15;21.95;;;11.70;99.90;;;;;;5038950;28;20029;-84
2022/10/28 03:53:43;;;;;;;40.85;22.20;;;11.70;99.90;;;;;;5022202;28;20026;-83
2022/10/28 03:56:10;;;;;;;41.85;22.48;;;11.70;99.90;;;;;;5006115;28;20021;-84
2022/10/28 03:58:36;;;;;;;43.38;21.88;;;11.70;99.90;;;;;;5037666;28;20022;-85
2022/10/28 04:01:02;;;;;;;40.58;22.00;;;11.70;99.90;;;;;;5038216;28;20033;-87
2022/10/28 04:03:28;;;;;;;40.22;21.80;;;11.70;99.90;;;;;;5021382;28;20038;-85
2022/10/28 04:05:54;;;;;;;38.75;21.20;;;11.70;99.90;;;;;;5036677;28;20090;-88
2022/10/28 04:08:20;;;;;;;40.50;21.98;;;11.70;99.90;;;;;;5030633;28;20030;-86
2022/10/28 04:10:46;;;;;;;40.53;21.38;;;11.70;99.90;;;;;;5030300;28;20048;-86
2022/10/28 04:13:13;;;;;;;42.28;22.02;;;11.70;99.90;;;;;;5012319;28;20034;-86
2022/10/28 04:15:39;;;;;;;39.00;21.70;;;11.70;99.90;;;;;;5027578;28;20013;-86
2022/10/28 04:18:05;;;;;;;39.88;20.70;;;11.70;99.90;;;;;;5028536;28;20105;-88
2022/10/28 04:20:31;;;;;;;38.45;20.50;;;11.70;99.90;;;;;;5028552;28;20022;-87
2022/10/28 04:22:57;;;;;;;36.67;20.45;;;11.70;99.90;;;;;;5030070;28;20049;-88
2022/10/28 04:25:26;;;;;;;38.70;20.17;;;11.70;99.90;;;;;;5029871;28;20078;-87
2022/10/28 04:27:53;;;;;;;33.13;18.60;;;11.70;99.90;;;;;;5026558;28;20120;-84
2022/10/28 04:30:19;;;;;;;38.38;19.45;;;11.80;99.90;;;;;;5027333;28;20032;-86
2022/10/28 04:32:45;;;;;;;36.65;19.52;;;11.80;99.90;;;;;;5027579;28;20090;-88
2022/10/28 04:35:12;;;;;;;37.28;19.73;;;11.80;99.90;;;;;;5026547;28;20109;-87
2022/10/28 04:37:39;;;;;;;37.53;19.27;;;11.80;99.90;;;;;;5028000;28;20109;-87
2022/10/28 04:40:06;;;;;;;36.67;20.02;;;11.80;99.90;;;;;;5035483;28;20010;-86
2022/10/28 04:42:32;;;;;;;39.38;20.38;;;11.80;99.90;;;;;;5032030;28;20048;-87
2022/10/28 04:44:58;;;;;;;36.85;19.20;;;11.70;99.90;;;;;;5028193;28;20026;-86
2022/10/28 04:47:24;;;;;;;36.28;19.40;;;11.70;99.90;;;;;;5026682;28;20033;-86
2022/10/28 04:49:50;;;;;;;36.10;19.90;;;11.70;99.90;;;;;;5010983;28;20094;-87
2022/10/28 04:52:16;;;;;;;40.50;20.95;;;11.70;99.90;;;;;;5035839;28;20045;-84
2022/10/28 04:54:42;;;;;;;37.25;19.92;;;11.70;99.90;;;;;;5037293;28;20006;-85
2022/10/28 04:57:08;;;;;;;36.70;18.80;;;11.80;99.90;;;;;;5020101;28;20052;-85
2022/10/28 04:59:33;;;;;;;40.03;20.35;;;11.80;99.90;;;;;;5030142;28;20110;-87
2022/10/28 05:01:59;;;;;;;41.38;19.52;;;11.70;99.90;;;;;;5000676;28;20033;-86
2022/10/28 05:04:25;;;;;;;33.28;19.38;;;11.70;99.90;;;;;;5019705;28;20114;-86
2022/10/28 05:06:51;;;;;;;35.10;18.75;;;11.70;99.90;;;;;;5035988;28;20045;-85
2022/10/28 05:09:17;;;;;;;37.50;19.92;;;11.80;99.90;;;;;;5033663;28;20022;-87
2022/10/28 05:11:43;;;;;;;35.75;19.52;;;11.70;99.90;;;;;;5029539;28;20037;-85
2022/10/28 05:14:08;;;;;;;35.65;19.48;;;11.70;99.90;;;;;;5036889;28;20032;-86
2022/10/28 05:16:34;;;;;;;37.58;18.83;;;11.70;99.90;;;;;;5036893;28;20014;-84
2022/10/28 05:19:00;;;;;;;34.78;19.05;;;11.70;99.90;;;;;;5037013;28;20024;-84
2022/10/28 05:21:26;;;;;;;39.25;18.63;;;11.70;99.90;;;;;;5037343;28;20433;-86
2022/10/28 05:23:52;;;;;;;35.85;18.25;;;11.80;99.90;;;;;;5072242;23;20070;-82
2022/10/28 05:26:18;;;;;;;36.83;19.38;;;11.80;99.90;;;;;;5043370;28;20078;-81
2022/10/28 05:28:48;;;;;;;39.45;19.83;;;11.70;99.90;;;;;;5070566;28;20084;-80
2022/10/28 05:31:14;;;;;;;38.90;19.65;;;11.70;99.90;;;;;;5074632;28;20036;-82
2022/10/28 05:33:40;;;;;;;36.00;19.23;;;11.80;99.90;;;;;;5054434;28;20084;-82
2022/10/28 05:36:06;;;;;;;39.47;20.35;;;11.70;99.90;;;;;;5049811;28;20420;-82
2022/10/28 05:38:31;;;;;;;46.15;22.02;;;11.80;99.90;;;;;;5042677;28;20338;-81
2022/10/28 05:40:57;;;;;;;36.97;20.00;;;11.80;99.90;;;;;;5043824;28;20022;-82
2022/10/28 05:43:23;;;;;;;43.25;22.63;;;11.80;99.90;;;;;;5054659;28;20029;-81
2022/10/28 05:45:53;;;;;;;42.50;22.23;;;11.80;99.90;;;;;;5041053;28;20041;-82
2022/10/28 05:48:19;;;;;;;39.50;22.17;;;11.80;99.90;;;;;;5042982;28;20025;-81
2022/10/28 05:50:45;;;;;;;56.53;27.80;;;11.80;99.90;;;;;;5044117;28;20071;-82
2022/10/28 05:53:11;;;;;;;51.28;24.80;;;11.80;99.90;;;;;;5044889;28;20044;-84
2022/10/28 05:55:36;;;;;;;49.88;24.20;;;11.80;99.90;;;;;;5044518;28;20133;-83
2022/10/28 05:58:02;;;;;;;50.67;23.13;;;11.90;99.90;;;;;;5042301;28;20057;-81
2022/10/28 06:00:28;;;;;;;43.63;22.10;;;11.90;99.90;;;;;;5052388;28;20016;-81
2022/10/28 06:03:02;;;;;;;41.67;21.83;;;11.90;99.90;;;;;;5046775;28;20033;-85
2022/10/28 06:05:28;;;;;;;43.80;22.73;;;11.90;99.90;;;;;;5019878;28;20032;-86
2022/10/28 06:07:54;;;;;;;42.40;21.90;;;11.90;99.90;;;;;;5043187;28;20034;-81
2022/10/28 06:10:19;;;;;;;38.65;20.45;;;11.90;99.90;;;;;;5041780;28;20025;-80
2022/10/28 06:12:45;;;;;;;43.70;22.35;;;12.00;99.90;;;;;;5041938;28;20028;-80
2022/10/28 06:15:11;;;;;;;39.75;21.10;;;12.00;99.90;;;;;;5044727;28;20389;-81
2022/10/28 06:17:37;;;;;;;46.20;22.08;;;12.00;99.90;;;;;;5051176;28;20036;-84
2022/10/28 06:20:03;;;;;;;39.22;21.73;;;12.00;99.90;;;;;;5035504;28;20046;-89
2022/10/28 06:22:29;;;;;;;43.28;21.15;;;12.10;99.90;;;;;;5051404;28;20037;-80
2022/10/28 06:24:55;;;;;;;40.85;21.45;;;12.10;99.90;;;;;;5043753;28;20071;-83
2022/10/28 06:27:20;;;;;;;33.63;19.02;;;12.10;99.90;;;;;;5060065;28;20397;-81
2022/10/28 06:29:46;;;;;;;34.83;19.58;;;12.10;99.90;;;;;;5062667;28;20025;-81
2022/10/28 06:32:12;;;;;;;37.70;18.88;;;12.10;99.90;;;;;;5063264;28;20483;-81
2022/10/28 06:34:38;;;;;;;30.67;17.35;;;12.00;99.90;;;;;;5055481;28;20079;-81
2022/10/28 06:37:05;;;;;;;32.47;17.50;;;12.00;99.90;;;;;;5049006;28;20025;-82
2022/10/28 06:39:32;;;;;;;30.02;17.42;;;12.00;99.90;;;;;;5042880;28;20033;-82
2022/10/28 06:41:57;;;;;;;35.90;17.83;;;12.00;99.90;;;;;;5051804;28;20030;-83
2022/10/28 06:44:23;;;;;;;31.65;17.55;;;12.10;99.90;;;;;;5044956;28;20369;-83
2022/10/28 06:46:49;;;;;;;35.25;17.30;;;12.00;99.90;;;;;;5052622;28;21008;-82
2022/10/28 06:49:15;;;;;;;36.47;17.80;;;12.10;99.90;;;;;;5050715;28;20017;-82
2022/10/28 06:51:41;;;;;;;34.03;18.48;;;12.10;99.90;;;;;;5055203;28;20028;-82
2022/10/28 06:54:07;;;;;;;30.42;16.67;;;12.10;99.90;;;;;;5056230;28;20148;-82
2022/10/28 06:56:32;;;;;;;30.70;16.60;;;12.10;99.90;;;;;;5057862;28;20035;-82
2022/10/28 06:58:58;;;;;;;36.17;17.80;;;12.10;99.90;;;;;;5055412;28;20025;-82
2022/10/28 07:01:24;;;;;;;34.17;17.02;;;12.20;99.90;;;;;;5053690;28;20021;-82
2022/10/28 07:03:50;;;;;;;31.13;16.65;;;12.20;99.90;;;;;;5052995;28;20127;-83
2022/10/28 07:06:16;;;;;;;34.40;18.02;;;12.10;99.90;;;;;;5054262;28;20018;-83
2022/10/28 07:08:41;;;;;;;34.33;17.70;;;12.20;99.90;;;;;;5053435;28;20025;-82
2022/10/28 07:11:07;;;;;;;35.97;18.40;;;12.10;99.90;;;;;;5053863;28;20029;-82
2022/10/28 07:13:33;;;;;;;36.33;17.95;;;12.10;99.90;;;;;;5052525;28;20508;-83
2022/10/28 07:16:00;;;;;;;36.08;18.17;;;12.10;99.90;;;;;;5052662;28;20049;-82
2022/10/28 07:18:27;;;;;;;35.85;18.02;;;12.10;99.90;;;;;;5051019;28;20040;-81
2022/10/28 07:20:56;;;;;;;31.30;17.33;;;12.20;99.90;;;;;;5043779;28;20017;-84
2022/10/28 07:23:22;;;;;;;34.35;17.65;;;12.10;99.90;;;;;;5023472;28;20065;-84
2022/10/28 07:25:55;;;;;;;34.55;17.33;;;12.20;99.90;;;;;;5041714;28;20025;-83
2022/10/28 07:28:23;;;;;;;39.38;17.98;;;12.20;99.90;;;;;;5043013;28;20033;-83
2022/10/28 07:30:48;;;;;;;34.15;16.50;;;12.20;99.90;;;;;;5044268;28;20025;-81
2022/10/28 07:33:14;;;;;;;36.33;19.33;;;12.10;99.90;;;;;;5053014;28;20077;-82
2022/10/28 07:35:41;;;;;;;37.42;18.95;;;12.10;99.90;;;;;;5030579;28;20088;-81
2022/10/28 07:38:07;;;;;;;35.95;18.95;;;12.10;99.90;;;;;;5045588;28;20065;-82
2022/10/28 07:40:33;;;;;;;38.05;19.83;;;12.10;99.90;;;;;;5053433;28;20025;-81
2022/10/28 07:42:59;;;;;;;39.28;20.13;;;12.10;99.90;;;;;;5058061;28;20033;-82
2022/10/28 07:45:24;;;;;;;37.20;18.90;;;12.20;99.90;;;;;;5049624;28;20059;-80
2022/10/28 07:47:50;;;;;;;31.60;17.80;;;12.20;99.90;;;;;;5051684;28;20411;-82
2022/10/28 07:50:16;;;;;;;30.50;17.98;;;12.20;99.90;;;;;;5052786;28;20083;-82
2022/10/28 07:52:43;;;;;;;36.03;18.23;;;12.20;99.90;;;;;;5055383;28;20051;-81
2022/10/28 07:55:10;;;;;;;35.38;18.00;;;12.20;99.90;;;;;;5054295;28;20033;-81
2022/10/28 07:57:37;;;;;;;37.63;18.90;;;12.20;99.90;;;;;;5053419;28;20074;-81
2022/10/28 08:00:05;;;;;;;28.02;15.73;;;12.20;99.90;;;;;;5050590;28;20044;-81
2022/10/28 08:02:36;;;;;;;31.15;17.17;;;12.20;99.90;;;;;;5052980;28;20282;-81
2022/10/28 08:05:02;;;;;;;30.75;15.93;;;12.20;99.90;;;;;;5058247;28;20021;-81
2022/10/28 08:07:28;;;;;;;28.60;15.60;;;12.30;99.90;;;;;;5046824;28;20487;-82
2022/10/28 08:09:54;;;;;;;29.98;15.43;;;12.30;99.90;;;;;;5048071;28;20055;-82
2022/10/28 08:12:19;;;;;;;30.10;16.40;;;12.30;99.90;;;;;;5050617;28;20021;-82
2022/10/28 08:14:45;;;;;;;27.48;14.50;;;12.30;99.90;;;;;;5050450;28;20051;-82
2022/10/28 08:17:11;;;;;;;30.92;14.18;;;12.40;99.90;;;;;;5051651;28;20030;-83
2022/10/28 08:19:37;;;;;;;31.77;15.93;;;12.40;99.90;;;;;;5049066;28;20033;-84
2022/10/28 08:22:03;;;;;;;31.20;16.02;;;12.50;99.90;;;;;;5051776;28;20025;-82
2022/10/28 08:24:28;;;;;;;29.40;16.65;;;12.50;99.90;;;;;;5061467;28;20013;-83
2022/10/28 08:26:54;;;;;;;32.08;16.80;;;12.60;99.90;;;;;;5052487;28;20093;-84
2022/10/28 08:29:20;;;;;;;30.35;15.82;;;12.60;99.90;;;;;;5051712;28;20025;-82
2022/10/28 08:31:46;;;;;;;31.58;16.95;;;12.60;99.90;;;;;;5058170;28;20017;-83
2022/10/28 08:34:12;;;;;;;28.83;16.00;;;12.50;99.90;;;;;;5056702;28;20029;-81
2022/10/28 08:36:40;;;;;;;29.00;15.27;;;12.50;99.90;;;;;;5052482;28;20060;-81
2022/10/28 08:39:06;;;;;;;28.02;15.88;;;12.60;99.90;;;;;;5046870;28;20029;-81
2022/10/28 08:42:03;;;;;;;28.83;16.30;;;12.50;99.90;;;;;;5047431;28;20087;-83
2022/10/28 08:44:41;;;;;;;28.30;14.93;;;12.60;99.90;;;;;;5054394;28;20032;-81
2022/10/28 08:47:22;;;;;;;26.65;15.45;;;12.60;99.90;;;;;;5053721;28;20021;-84
2022/10/28 08:49:55;;;;;;;30.83;15.63;;;12.60;99.90;;;;;;5048637;28;20040;-82
2022/10/28 08:52:43;;;;;;;25.33;14.82;;;12.50;99.90;;;;;;5065083;28;20021;-83
2022/10/28 08:55:26;;;;;;;25.15;13.82;;;12.60;99.90;;;;;;5060210;28;20107;-83
2022/10/28 08:57:54;;;;;;;24.25;14.68;;;12.60;99.90;;;;;;5060837;28;20028;-82
2022/10/28 09:00:22;;;;;;;26.27;15.13;;;12.70;99.90;;;;;;5056455;28;20013;-82
2022/10/28 09:02:51;;;;;;;28.00;16.55;;;12.60;99.90;;;;;;5047233;28;20043;-82
2022/10/28 09:05:21;;;;;;;27.63;15.00;;;12.50;99.90;;;;;;5046190;28;20024;-82
2022/10/28 09:07:50;;;;;;;24.08;14.07;;;12.50;99.90;;;;;;5049873;28;20504;-82
2022/10/28 09:10:20;;;;;;;26.42;14.70;;;12.60;99.90;;;;;;5047634;28;20091;-83
2022/10/28 09:13:22;;;;;;;27.58;13.80;;;12.70;99.90;;;;;;5047135;28;20013;-83
2022/10/28 09:16:09;;;;;;;27.02;15.10;;;12.60;99.90;;;;;;5049625;28;20029;-82
2022/10/28 09:18:50;;;;;;;28.10;14.57;;;12.60;99.90;;;;;;5046701;28;20089;-82
2022/10/28 09:21:59;;;;;;;62.00;24.33;;;12.70;99.90;;;;;;5048651;28;20029;-84
2022/10/28 09:24:49;;;;;;;33.83;16.60;;;12.70;99.90;;;;;;5046703;28;20057;-80
2022/10/28 09:27:42;;;;;;;29.42;15.82;;;12.80;99.90;;;;;;5040348;28;20059;-84
2022/10/28 09:30:32;;;;;;;29.17;16.27;;;12.80;99.90;;;;;;5051916;28;20025;-82
2022/10/28 09:33:12;;;;;;;25.20;13.95;;;12.80;99.90;;;;;;5050537;28;20051;-81
2022/10/28 09:35:43;;;;;;;25.75;14.45;;;12.90;99.90;;;;;;5047301;28;20033;-82
2022/10/28 09:38:14;;;;;;;26.70;15.27;;;12.90;99.90;;;;;;5057039;28;20017;-81
2022/10/28 09:40:45;;;;;;;26.30;15.18;;;13.00;99.90;;;;;;5051470;28;20039;-83
2022/10/28 09:43:28;;;;;;;28.17;14.30;;;12.90;99.90;;;;;;5051211;28;20043;-83
2022/10/28 09:46:02;;;;;;;26.30;15.60;;;13.00;99.90;;;;;;5052127;28;20081;-82
2022/10/28 09:48:40;;;;;;;24.43;14.73;;;12.90;99.90;;;;;;5054168;28;20026;-84
2022/10/28 09:51:05;;;;;;;22.90;13.75;;;12.90;99.90;;;;;;5060659;28;20041;-82
2022/10/28 09:53:51;;;;;;;24.25;13.82;;;13.00;99.90;;;;;;5054223;28;20037;-83
2022/10/28 09:56:16;;;;;;;;;;;13.00;99.90;;;;;;5056433;28;20071;-84
2022/10/28 09:58:46;;;;;;;26.17;13.80;;;12.90;99.90;;;;;;5051781;28;19904;-81
2022/10/28 10:01:14;;;;;;;29.08;15.57;;;12.80;99.90;;;;;;5060420;28;20013;-82
2022/10/28 10:03:40;;;;;;;21.50;14.18;;;12.90;99.90;;;;;;5069990;28;20029;-79
2022/10/28 10:06:12;;;;;;;24.25;14.48;;;12.90;99.90;;;;;;5069690;28;20095;-82
2022/10/28 10:08:40;;;;;;;25.60;13.40;;;12.90;99.90;;;;;;5063130;28;20060;-82
2022/10/28 10:11:38;;;;;;;23.92;14.07;;;12.90;99.90;;;;;;5063234;28;20033;-82
2022/10/28 10:14:08;;;;;;;25.23;14.57;;;12.90;99.90;;;;;;5060137;28;20045;-82
2022/10/28 10:16:52;;;;;;;23.00;13.90;;;12.90;99.90;;;;;;5062367;28;20052;-80
2022/10/28 10:19:17;;;;;;;29.40;16.38;;;13.00;99.90;;;;;;5062847;28;20056;-81
2022/10/28 10:21:48;;;;;;;35.10;20.13;;;13.10;99.90;;;;;;5076055;28;20033;-81
2022/10/28 10:24:34;;;;;;;35.38;19.92;;;13.10;99.90;;;;;;5062975;28;20033;-82
2022/10/28 10:27:11;;;;;;;36.55;18.77;;;13.10;99.90;;;;;;5061738;28;20025;-82
2022/10/28 10:29:50;;;;;;;26.40;16.52;;;13.20;99.90;;;;;;5061439;28;20021;-82
2022/10/28 10:32:23;;;;;;;24.45;15.90;;;13.20;99.90;;;;;;5061556;28;20075;-83
2022/10/28 10:35:20;;;;;;;22.80;14.30;;;13.20;99.90;;;;;;5069964;28;20040;-84
2022/10/28 10:37:47;;;;;;;29.13;15.52;;;13.30;99.90;;;;;;5069654;28;20029;-81
2022/10/28 10:40:16;;;;;;;24.70;13.43;;;13.20;99.90;;;;;;5070909;28;20037;-82
2022/10/28 10:42:42;;;;;;;31.13;16.83;;;13.30;99.90;;;;;;5065938;28;20036;-83
2022/10/28 10:45:14;;;;;;;26.13;15.25;;;13.30;99.90;;;;;;5067478;28;20025;-83
2022/10/28 10:47:40;;;;;;;29.02;15.93;;;13.30;99.90;;;;;;5063643;28;20111;-82
2022/10/28 10:50:19;;;;;;;30.98;15.93;;;13.20;99.90;;;;;;5061953;28;20048;-85
2022/10/28 10:52:56;;;;;;;28.48;15.52;;;13.30;99.90;;;;;;5062503;28;20099;-82
2022/10/28 10:55:32;;;;;;;28.40;15.65;;;13.40;99.90;;;;;;5067063;28;20108;-82
2022/10/28 10:58:00;;;;;;;23.58;14.65;;;13.40;99.90;;;;;;5056628;28;20104;-81
2022/10/28 11:00:31;;;;;;;25.85;15.95;;;13.50;99.90;;;;;;5046889;28;20456;-83
2022/10/28 11:02:58;;;;;;;29.35;17.83;;;13.60;99.90;;;;;;5047213;28;20033;-82
2022/10/28 11:05:24;;;;;;;39.78;22.17;;;13.70;99.90;;;;;;5046214;28;20022;-82
2022/10/28 11:07:51;;;;;;;47.45;24.85;;;13.70;99.90;;;;;;5047084;28;20026;-84
2022/10/28 11:10:28;;;;;;;40.20;24.20;;;13.60;99.90;;;;;;5047465;28;20022;-84
2022/10/28 11:13:00;;;;;;;41.47;24.23;;;13.60;99.90;;;;;;5053710;28;20033;-82
2022/10/28 11:15:30;;;;;;;42.33;24.35;;;13.60;99.90;;;;;;5056948;28;20037;-84
2022/10/28 11:18:13;;;;;;;42.63;25.50;;;13.70;99.90;;;;;;5050999;28;20028;-83
2022/10/28 11:20:42;;;;;;;43.83;25.48;;;13.70;99.90;;;;;;5056426;28;20025;-84
2022/10/28 11:23:43;;;;;;;44.85;25.02;;;13.60;99.90;;;;;;5050282;28;20037;-84
2022/10/28 11:26:13;;;;;;;47.22;27.73;;;13.50;99.90;;;;;;5069125;23;20040;-88
2022/10/28 11:29:06;;;;;;;47.78;27.95;;;13.50;99.90;;;;;;5051863;28;20033;-88
2022/10/28 11:31:53;;;;;;;56.05;29.40;;;13.40;99.90;;;;;;5051747;28;20090;-88
2022/10/28 11:34:43;;;;;;;55.42;29.35;;;13.40;99.90;;;;;;5071763;28;20029;-90
2022/10/28 11:37:32;;;;;;;55.65;29.55;;;13.40;99.90;;;;;;5074349;28;20032;-89
2022/10/28 11:40:17;;;;;;;48.60;28.30;;;13.40;99.90;;;;;;5077054;28;20048;-89
2022/10/28 11:43:03;;;;;;;55.67;30.47;;;13.40;99.90;;;;;;5063982;28;20029;-88
2022/10/28 11:45:52;;;;;;;54.92;32.13;;;13.50;99.90;;;;;;5058069;28;20014;-87
2022/10/28 11:48:41;;;;;;;56.90;32.83;;;13.50;99.90;;;;;;5055863;28;20029;-88
2022/10/28 11:51:25;;;;;;;57.83;33.78;;;13.50;99.90;;;;;;5043313;28;20055;-88
2022/10/28 11:54:03;;;;;;;58.05;35.13;;;13.60;99.90;;;;;;5065065;28;20025;-88
2022/10/28 11:56:54;;;;;;;66.60;38.15;;;13.60;99.90;;;;;;5065346;28;20021;-87
2022/10/28 11:59:59;;;;;;;67.88;38.40;;;13.60;99.90;;;;;;5056351;28;20047;-87
2022/10/28 12:02:34;;;;;;;65.35;36.80;;;13.60;99.90;;;;;;5027331;28;20029;-86
2022/10/28 12:05:21;;;;;;;59.95;35.13;;;13.50;99.90;;;;;;5072140;28;20039;-85
2022/10/28 12:08:02;;;;;;;61.20;36.28;;;13.50;99.90;;;;;;5067193;28;20062;-88
2022/10/28 12:10:40;;;;;;;61.13;37.22;;;13.60;99.90;;;;;;5058423;28;20061;-85
2022/10/28 12:13:31;;;;;;;58.90;33.20;;;13.60;99.90;;;;;;5057334;28;20093;-87
2022/10/28 12:16:27;;;;;;;54.53;33.78;;;13.50;99.90;;;;;;5056462;28;20025;-87
2022/10/28 12:18:56;;;;;;;;;;;13.60;99.90;;;;;;5058180;28;20036;-86
2022/10/28 12:21:32;;;;;;;59.85;35.70;;;13.50;99.90;;;;;;5057284;28;19909;-85
2022/10/28 12:23:59;;;;;;;56.17;33.40;;;13.60;99.90;;;;;;5057967;28;20029;-86
2022/10/28 12:26:42;;;;;;;51.28;33.45;;;13.60;99.90;;;;;;5040189;28;20022;-88
2022/10/28 12:29:25;;;;;;;61.13;35.78;;;13.80;99.90;;;;;;5055949;28;20022;-86
2022/10/28 12:31:57;;;;;;;52.55;33.25;;;13.80;99.90;;;;;;5056701;28;20018;-86
2022/10/28 12:34:33;;;;;;;51.00;32.38;;;13.80;99.90;;;;;;5056691;28;20025;-87
2022/10/28 12:37:08;;;;;;;54.00;33.50;;;13.90;99.90;;;;;;5056271;28;20061;-88
2022/10/28 12:39:59;;;;;;;56.78;34.47;;;13.90;99.90;;;;;;5052301;28;20030;-89
2022/10/28 12:42:36;;;;;;;57.20;35.47;;;13.80;99.90;;;;;;5054288;28;20084;-89
2022/10/28 12:45:09;;;;;;;58.33;35.65;;;13.80;99.90;;;;;;5069169;28;20061;-88
2022/10/28 12:47:49;;;;;;;58.70;36.55;;;13.80;99.90;;;;;;5072156;28;20079;-89
2022/10/28 12:50:32;;;;;;;56.67;34.45;;;13.80;99.90;;;;;;5072196;28;20112;-89